Time;durP1;ratioP1;P1;durP2;ratioP2;P2;SDS_P1;SDS_P2;PMS_P1;PMS_P2;Temp;Humidity;BMP_temperature;BMP_pressure;BME280_temperature;BME280_humidity;BME280_pressure;Samples;Min_cycle;Max_cycle;Signal;HPM_P1;HPM_P2
2023/06/11 00:00:21;;;;;;;8.57;1.90;;;;;;;16.03;45.48;101875.09;4962324;28;20053;-75
2023/06/11 00:02:53;;;;;;;8.40;1.95;;;;;;;15.95;45.69;101878.03;4959591;28;20465;-71
2023/06/11 00:05:37;;;;;;;5.25;2.28;;;;;;;15.93;45.64;101877.25;4962201;28;20285;-71
2023/06/11 00:08:09;;;;;;;5.30;1.95;;;;;;;16.01;45.44;101872.53;4961938;28;20411;-70
2023/06/11 00:10:35;;;;;;;4.85;1.70;;;;;;;15.91;45.55;101876.50;4945769;28;20347;-70
2023/06/11 00:13:00;;;;;;;5.88;2.00;;;;;;;15.94;45.44;101881.63;4962970;28;20057;-70
2023/06/11 00:15:26;;;;;;;5.75;2.78;;;;;;;15.82;45.65;101877.78;4953011;28;20042;-70
2023/06/11 00:17:51;;;;;;;9.25;2.22;;;;;;;15.90;45.27;101882.69;4961415;28;20038;-70
2023/06/11 00:20:20;;;;;;;7.10;1.70;;;;;;;15.78;45.49;101876.22;4962260;28;20030;-70
2023/06/11 00:22:46;;;;;;;6.70;2.15;;;;;;;15.74;45.39;101872.00;4958569;28;20057;-71
2023/06/11 00:25:14;;;;;;;5.47;2.08;;;;;;;15.75;45.02;101871.06;4963079;28;20042;-70
2023/06/11 00:27:40;;;;;;;3.88;1.77;;;;;;;15.67;45.38;101874.06;4960826;28;20034;-70
2023/06/11 00:30:10;;;;;;;4.70;1.75;;;;;;;15.57;45.50;101870.13;4952684;28;20494;-71
2023/06/11 00:32:35;;;;;;;7.53;2.13;;;;;;;15.70;45.09;101875.69;4956211;28;20033;-71
2023/06/11 00:35:07;;;;;;;4.65;2.03;;;;;;;15.62;45.25;101876.06;4961431;28;20434;-71
2023/06/11 00:37:35;;;;;;;5.30;2.13;;;;;;;15.73;44.95;101862.41;4960000;28;20138;-70
2023/06/11 00:40:02;;;;;;;6.90;1.75;;;;;;;15.66;45.01;101871.47;4963729;28;20294;-71
2023/06/11 00:42:27;;;;;;;7.55;1.95;;;;;;;15.67;45.21;101867.94;4962385;28;20029;-71
2023/06/11 00:44:54;;;;;;;4.05;2.05;;;;;;;15.61;44.84;101866.44;4963748;28;20699;-71
2023/06/11 00:47:20;;;;;;;10.30;2.17;;;;;;;15.62;44.86;101870.78;4963410;28;20491;-71
2023/06/11 00:49:46;;;;;;;6.53;2.08;;;;;;;15.58;44.96;101867.44;4941815;28;20078;-71
2023/06/11 00:52:15;;;;;;;7.82;1.73;;;;;;;15.42;45.20;101863.78;4965491;28;20103;-71
2023/06/11 00:54:42;;;;;;;3.72;1.88;;;;;;;15.41;45.17;101869.13;4958107;28;20034;-71
2023/06/11 00:57:08;;;;;;;6.15;1.67;;;;;;;15.37;44.81;101871.00;4965176;28;20470;-71
2023/06/11 00:59:34;;;;;;;6.00;1.23;;;;;;;15.37;45.25;101866.63;4960970;28;20049;-72
2023/06/11 01:02:17;;;;;;;3.92;2.10;;;;;;;15.40;44.78;101870.91;4966999;28;20048;-71
2023/06/11 01:04:45;;;;;;;11.98;1.80;;;;;;;15.28;44.81;101869.69;4950208;28;20042;-71
2023/06/11 01:07:17;;;;;;;7.40;2.30;;;;;;;15.16;44.96;101872.81;4965765;28;20586;-72
2023/06/11 01:09:45;;;;;;;5.65;1.60;;;;;;;15.20;44.77;101868.28;4961909;28;20092;-71
2023/06/11 01:12:12;;;;;;;4.18;1.60;;;;;;;15.25;44.67;101874.22;4963086;28;20030;-71
2023/06/11 01:14:39;;;;;;;6.88;1.70;;;;;;;15.15;44.62;101877.22;4942629;28;20050;-71
2023/06/11 01:17:15;;;;;;;7.35;1.65;;;;;;;15.16;44.65;101876.28;4972548;28;20060;-68
2023/06/11 01:19:59;;;;;;;6.93;2.17;;;;;;;15.15;44.36;101886.91;4957238;28;20072;-68
2023/06/11 01:23:04;;;;;;;3.85;1.52;;;;;;;15.21;44.32;101880.50;4952853;28;20038;-68
2023/06/11 01:25:37;;;;;;;6.15;1.77;;;;;;;14.98;44.47;101887.63;4975001;28;20046;-68
2023/06/11 01:28:16;;;;;;;4.30;1.27;;;;;;;14.98;44.57;101882.34;4959501;28;20058;-68
2023/06/11 01:30:48;;;;;;;8.38;1.65;;;;;;;15.05;43.82;101880.31;4964628;28;20046;-69
2023/06/11 01:33:14;;;;;;;7.32;1.67;;;;;;;14.96;44.66;101878.91;4942172;28;20434;-69
2023/06/11 01:35:45;;;;;;;7.22;2.17;;;;;;;14.96;44.27;101886.81;4944349;28;20042;-68
2023/06/11 01:38:11;;;;;;;7.70;2.42;;;;;;;14.85;44.51;101884.63;4960939;28;20088;-69
2023/06/11 01:40:45;;;;;;;3.08;1.45;;;;;;;14.85;44.27;101878.53;4931617;28;20038;-72
2023/06/11 01:43:11;;;;;;;5.18;1.73;;;;;;;14.85;44.19;101883.78;4933757;28;20397;-73
2023/06/11 01:45:38;;;;;;;2.75;1.40;;;;;;;14.90;44.15;101880.06;4960135;28;20034;-73
2023/06/11 01:48:04;;;;;;;7.45;1.30;;;;;;;14.87;43.84;101876.69;4962508;28;20715;-73
2023/06/11 01:50:31;;;;;;;4.03;1.17;;;;;;;14.73;44.29;101875.50;4947192;28;20039;-72
2023/06/11 01:52:56;;;;;;;6.10;1.65;;;;;;;14.74;44.21;101874.56;4947838;28;20415;-72
2023/06/11 01:55:24;;;;;;;4.30;1.45;;;;;;;14.68;44.03;101877.47;4950295;28;20045;-74
2023/06/11 01:57:50;;;;;;;5.63;1.48;;;;;;;14.72;43.88;101886.94;4967352;28;20153;-75
2023/06/11 02:00:18;;;;;;;5.10;1.58;;;;;;;14.74;43.86;101882.44;4949666;28;20073;-75
2023/06/11 02:02:47;;;;;;;3.58;1.63;;;;;;;14.50;43.96;101878.19;4968355;28;20044;-76
2023/06/11 02:05:14;;;;;;;4.60;1.48;;;;;;;14.67;43.65;101869.63;4964472;28;20492;-75
2023/06/11 02:07:40;;;;;;;8.63;1.60;;;;;;;14.70;43.08;101875.63;4950865;28;21088;-75
2023/06/11 02:10:06;;;;;;;5.55;1.45;;;;;;;14.62;43.32;101875.09;4965033;28;20540;-75
2023/06/11 02:12:32;;;;;;;5.13;1.23;;;;;;;14.71;43.18;101882.59;4967342;28;20034;-75
2023/06/11 02:14:58;;;;;;;7.82;1.40;;;;;;;14.61;43.16;101873.34;4950824;28;20576;-70
2023/06/11 02:17:24;;;;;;;5.10;1.80;;;;;;;14.54;43.38;101890.31;4964607;28;20041;-70
2023/06/11 02:19:50;;;;;;;4.85;2.28;;;;;;;14.65;42.80;101888.09;4931032;28;20042;-71
2023/06/11 02:22:15;;;;;;;5.45;1.17;;;;;;;14.56;42.87;101888.47;4961490;28;20034;-72
2023/06/11 02:24:41;;;;;;;7.97;1.75;;;;;;;14.52;42.79;101877.25;4963866;28;20053;-72
2023/06/11 02:27:07;;;;;;;4.72;1.55;;;;;;;14.54;42.71;101885.06;4983889;28;20026;-72
2023/06/11 02:29:34;;;;;;;6.78;1.88;;;;;;;14.55;42.75;101885.00;4948649;28;20045;-72
2023/06/11 02:32:01;;;;;;;3.28;1.80;;;;;;;14.53;42.67;101883.34;4948959;28;20030;-72
2023/06/11 02:34:26;;;;;;;6.07;1.80;;;;;;;14.46;42.51;101881.91;4979932;28;20042;-72
2023/06/11 02:36:51;;;;;;;2.78;1.52;;;;;;;14.41;42.69;101878.56;4948650;28;20037;-72
2023/06/11 02:39:17;;;;;;;3.72;1.17;;;;;;;14.26;42.83;101880.88;4965788;28;20622;-71
2023/06/11 02:41:43;;;;;;;3.42;1.05;;;;;;;14.27;42.56;101869.44;4964338;28;20022;-72
2023/06/11 02:44:09;;;;;;;3.05;1.40;;;;;;;14.28;42.53;101868.53;4980359;28;20405;-71
2023/06/11 02:46:35;;;;;;;3.35;0.80;;;;;;;14.22;42.50;101871.41;4964089;28;20128;-71
2023/06/11 02:49:00;;;;;;;7.22;1.80;;;;;;;14.27;42.44;101865.94;4970072;28;20289;-71
2023/06/11 02:51:26;;;;;;;4.05;1.83;;;;;;;14.25;41.92;101867.78;4950289;28;20027;-71
2023/06/11 02:53:51;;;;;;;4.05;1.48;;;;;;;14.20;42.09;101873.22;4962054;28;20141;-71
2023/06/11 02:56:17;;;;;;;4.45;1.35;;;;;;;14.29;41.75;101869.38;4966012;28;20141;-70
2023/06/11 02:58:44;;;;;;;6.07;1.27;;;;;;;14.15;42.01;101870.78;4962858;28;20038;-70
2023/06/11 03:01:09;;;;;;;3.33;1.40;;;;;;;14.10;41.97;101877.16;4962196;28;20035;-70
2023/06/11 03:03:35;;;;;;;3.17;1.13;;;;;;;14.07;41.82;101874.63;4961826;28;20485;-69
2023/06/11 03:06:01;;;;;;;5.30;1.42;;;;;;;13.97;41.67;101878.53;4964608;28;20039;-70
2023/06/11 03:08:27;;;;;;;3.03;0.98;;;;;;;14.04;41.52;101880.00;4963044;28;20030;-70
2023/06/11 03:10:53;;;;;;;1.92;0.95;;;;;;;14.04;41.66;101878.22;4961873;28;20034;-69
2023/06/11 03:13:19;;;;;;;3.00;0.80;;;;;;;14.04;41.58;101877.38;4963580;28;20403;-69
2023/06/11 03:15:48;;;;;;;4.82;1.42;;;;;;;14.03;41.39;101880.91;4946364;28;20102;-68
2023/06/11 03:18:15;;;;;;;7.60;1.92;;;;;;;14.04;41.13;101882.63;4951662;28;20504;-69
2023/06/11 03:20:41;;;;;;;4.35;1.17;;;;;;;14.03;41.15;101878.28;4974752;28;20044;-69
2023/06/11 03:23:09;;;;;;;3.47;1.33;;;;;;;14.10;40.93;101885.03;4965634;28;20376;-69
2023/06/11 03:25:35;;;;;;;4.35;1.02;;;;;;;14.00;41.06;101881.88;4946228;28;20065;-70
2023/06/11 03:28:02;;;;;;;3.13;1.23;;;;;;;13.99;40.94;101890.69;4965517;28;20096;-70
2023/06/11 03:30:28;;;;;;;2.25;0.63;;;;;;;14.05;40.90;101884.34;4962826;28;20133;-70
2023/06/11 03:32:53;;;;;;;7.38;1.73;;;;;;;14.06;40.79;101879.03;4964150;28;20646;-70
2023/06/11 03:35:19;;;;;;;7.25;0.93;;;;;;;14.13;40.67;101882.28;4955189;28;20096;-70
2023/06/11 03:37:46;;;;;;;3.60;0.93;;;;;;;14.05;40.52;101884.34;4963777;28;20041;-70
2023/06/11 03:40:16;;;;;;;6.57;1.08;;;;;;;13.88;40.86;101882.38;4964263;28;20044;-70
2023/06/11 03:42:42;;;;;;;1.90;0.80;;;;;;;14.04;40.53;101880.00;4976486;28;20034;-70
2023/06/11 03:45:07;;;;;;;3.80;1.10;;;;;;;14.10;40.10;101880.63;4964867;28;20129;-70
2023/06/11 03:47:34;;;;;;;2.67;0.88;;;;;;;14.03;40.13;101878.28;4959958;28;22169;-70
2023/06/11 03:49:59;;;;;;;4.78;0.80;;;;;;;14.05;40.18;101885.19;4963376;28;20137;-70
2023/06/11 03:52:25;;;;;;;5.88;1.00;;;;;;;14.00;39.99;101878.41;4962584;28;20034;-69
2023/06/11 03:54:51;;;;;;;12.63;1.00;;;;;;;14.08;39.92;101879.84;4962022;28;20046;-69
2023/06/11 03:57:19;;;;;;;7.03;1.30;;;;;;;14.08;39.85;101878.97;4952939;28;20045;-70
2023/06/11 03:59:45;;;;;;;1.98;0.77;;;;;;;14.17;39.68;101886.50;4959970;28;20298;-71
2023/06/11 04:02:11;;;;;;;6.15;0.77;;;;;;;14.05;39.80;101879.09;4948011;28;20048;-69
2023/06/11 04:04:36;;;;;;;1.80;0.90;;;;;;;14.06;39.61;101879.03;4963676;28;20648;-69
2023/06/11 04:07:03;;;;;;;4.35;0.90;;;;;;;14.05;39.89;101882.56;4963639;28;20117;-69
2023/06/11 04:09:29;;;;;;;4.05;1.35;;;;;;;13.99;40.06;101887.22;4970519;28;20415;-69
2023/06/11 04:11:56;;;;;;;4.45;1.55;;;;;;;13.99;39.88;101881.97;4959559;28;20506;-70
2023/06/11 04:14:25;;;;;;;6.57;0.82;;;;;;;14.01;39.92;101882.75;4962091;28;20765;-70
2023/06/11 04:16:51;;;;;;;3.78;0.65;;;;;;;13.98;39.87;101891.59;4961971;28;20030;-70
2023/06/11 04:19:18;;;;;;;2.65;1.48;;;;;;;14.07;39.90;101893.03;4944880;28;20077;-70
2023/06/11 04:21:43;;;;;;;3.00;0.80;;;;;;;14.01;39.88;101891.50;4963214;28;20117;-68
2023/06/11 04:24:09;;;;;;;2.90;0.68;;;;;;;14.04;40.01;101883.50;4953904;28;20048;-73
2023/06/11 04:26:36;;;;;;;5.03;1.05;;;;;;;14.25;39.57;101884.41;4970194;28;20122;-73
2023/06/11 04:29:03;;;;;;;9.65;1.00;;;;;;;14.23;39.36;101890.66;4967796;28;20570;-69
2023/06/11 04:31:29;;;;;;;5.88;1.20;;;;;;;14.43;39.07;101892.53;4983646;28;20042;-70
2023/06/11 04:34:02;;;;;;;3.22;0.52;;;;;;;14.44;39.25;101883.72;4961934;28;20061;-69
2023/06/11 04:36:29;;;;;;;5.07;0.90;;;;;;;14.43;39.01;101892.53;4962852;28;20149;-69
2023/06/11 04:38:55;;;;;;;3.42;0.60;;;;;;;14.62;38.85;101897.91;4958162;28;20819;-70
2023/06/11 04:41:26;;;;;;;7.75;1.30;;;;;;;14.66;38.99;101886.34;4961301;28;20041;-70
2023/06/11 04:43:52;;;;;;;8.23;1.50;;;;;;;14.70;38.77;101886.16;4973746;28;20070;-70
2023/06/11 04:46:18;;;;;;;3.58;0.68;;;;;;;14.79;38.48;101889.31;4960791;28;20899;-69
2023/06/11 04:48:50;;;;;;;2.35;0.50;;;;;;;14.71;38.47;101889.63;4958944;28;20045;-70
2023/06/11 04:51:17;;;;;;;2.95;0.80;;;;;;;14.58;38.69;101896.31;4962087;28;20034;-69
2023/06/11 04:53:45;;;;;;;4.72;0.73;;;;;;;14.84;38.37;101888.19;4960147;28;20042;-74
2023/06/11 04:56:14;;;;;;;4.93;0.80;;;;;;;14.97;38.15;101883.28;4962652;28;20026;-71
2023/06/11 04:58:40;;;;;;;4.15;1.00;;;;;;;15.16;37.78;101883.34;4952403;28;20088;-71
2023/06/11 05:01:07;;;;;;;2.03;0.63;;;;;;;15.23;37.69;101890.06;4963275;28;20030;-74
2023/06/11 05:03:36;;;;;;;4.22;1.27;;;;;;;15.58;37.12;101890.28;4959867;28;20038;-74
2023/06/11 05:06:04;;;;;;;3.17;0.80;;;;;;;16.50;35.28;101891.25;4946207;28;20042;-75
2023/06/11 05:08:32;;;;;;;12.23;0.80;;;;;;;17.47;33.56;101891.66;4960843;28;20104;-72
2023/06/11 05:10:59;;;;;;;2.28;0.82;;;;;;;18.32;31.76;101876.44;4966550;28;20039;-72
2023/06/11 05:13:26;;;;;;;1.58;0.60;;;;;;;18.76;30.88;101876.50;4944092;28;20801;-74
2023/06/11 05:15:57;;;;;;;1.85;0.93;;;;;;;18.82;30.85;101880.63;4960548;28;20046;-73
2023/06/11 05:18:26;;;;;;;2.10;1.00;;;;;;;18.95;30.38;101883.41;4958584;28;20165;-73
2023/06/11 05:20:55;;;;;;;7.40;1.00;;;;;;;19.48;30.09;101884.59;4960007;28;20030;-74
2023/06/11 05:23:28;;;;;;;5.25;1.00;;;;;;;19.81;29.37;101875.50;4962096;28;20557;-73
2023/06/11 05:26:01;;;;;;;2.67;0.70;;;;;;;20.25;28.77;101875.31;4960607;28;20030;-73
2023/06/11 05:28:30;;;;;;;3.78;0.55;;;;;;;20.58;28.27;101875.84;4977421;28;20046;-70
2023/06/11 05:30:56;;;;;;;1.52;0.70;;;;;;;20.81;27.44;101867.16;4944399;28;20135;-70
2023/06/11 05:33:22;;;;;;;1.48;0.57;;;;;;;20.30;28.35;101873.19;4960727;28;20218;-75
2023/06/11 05:35:49;;;;;;;5.15;0.80;;;;;;;20.24;28.40;101878.03;4974340;28;20058;-70
2023/06/11 05:38:17;;;;;;;4.95;1.30;;;;;;;20.32;28.60;101881.06;4968387;28;20877;-70
2023/06/11 05:40:44;;;;;;;2.42;1.20;;;;;;;20.58;27.99;101876.69;4940540;28;20039;-76
2023/06/11 05:43:10;;;;;;;3.53;1.02;;;;;;;20.86;27.73;101875.69;4948159;28;20136;-75
2023/06/11 05:45:36;;;;;;;2.22;0.88;;;;;;;20.91;27.61;101875.41;4935970;28;20416;-75
2023/06/11 05:48:05;;;;;;;7.68;1.33;;;;;;;20.60;28.36;101877.44;4946622;28;20098;-77
2023/06/11 05:50:33;;;;;;;4.15;1.13;;;;;;;20.83;27.50;101886.50;4941989;28;20045;-77
2023/06/11 05:52:59;;;;;;;4.55;0.73;;;;;;;21.03;27.81;101876.34;4948169;28;20190;-77
2023/06/11 05:55:24;;;;;;;7.35;1.05;;;;;;;21.29;27.34;101878.03;4943970;28;20051;-76
2023/06/11 05:57:50;;;;;;;11.52;1.88;;;;;;;21.80;26.42;101882.44;4925673;28;20045;-72
2023/06/11 06:00:17;;;;;;;4.40;1.00;;;;;;;22.34;26.24;101874.06;4960605;28;20527;-73
2023/06/11 06:02:48;;;;;;;2.58;0.68;;;;;;;23.02;25.33;101876.94;4960202;28;20073;-75
2023/06/11 06:05:20;;;;;;;2.53;0.85;;;;;;;22.43;25.91;101880.53;4946672;28;20232;-70
2023/06/11 06:07:46;;;;;;;4.53;1.00;;;;;;;22.72;24.97;101872.19;4961649;28;20038;-70
2023/06/11 06:10:11;;;;;;;3.30;0.68;;;;;;;23.11;25.05;101880.72;4957596;28;20065;-71
2023/06/11 06:12:37;;;;;;;6.65;0.82;;;;;;;23.64;24.24;101880.16;4957821;28;20029;-77
2023/06/11 06:15:03;;;;;;;1.48;0.63;;;;;;;23.35;24.72;101884.16;4944371;28;20047;-75
2023/06/11 06:17:30;;;;;;;3.30;0.68;;;;;;;23.47;25.06;101885.00;4963317;28;20570;-79
2023/06/11 06:19:55;;;;;;;4.38;0.93;;;;;;;23.47;24.27;101893.00;4959190;28;20134;-76
2023/06/11 06:22:21;;;;;;;2.28;1.05;;;;;;;23.58;24.76;101894.81;4963674;28;20046;-73
2023/06/11 06:24:47;;;;;;;2.17;0.93;;;;;;;23.78;24.17;101888.72;4957902;28;20553;-70
2023/06/11 06:27:13;;;;;;;2.00;0.60;;;;;;;24.38;23.83;101880.31;4961851;28;20047;-71
2023/06/11 06:29:41;;;;;;;4.00;1.42;;;;;;;24.64;23.38;101881.69;4937895;28;20042;-71
2023/06/11 06:32:08;;;;;;;3.17;0.98;;;;;;;23.73;24.19;101885.59;4957110;28;20665;-71
2023/06/11 06:34:35;;;;;;;3.88;1.35;;;;;;;23.47;24.53;101886.81;4956821;28;20143;-70
2023/06/11 06:37:00;;;;;;;2.08;1.08;;;;;;;24.06;24.45;101885.66;4964150;28;20041;-71
2023/06/11 06:39:28;;;;;;;3.15;0.68;;;;;;;24.48;24.10;101889.31;4963961;28;20641;-71
2023/06/11 06:41:55;;;;;;;2.17;1.05;;;;;;;25.18;22.86;101881.63;4970298;28;20391;-71
2023/06/11 06:44:33;;;;;;;4.68;0.85;;;;;;;24.90;23.18;101883.94;4951826;28;20038;-71
2023/06/11 06:46:59;;;;;;;3.65;1.75;;;;;;;24.24;23.99;101885.00;4979542;28;20068;-71
2023/06/11 06:49:24;;;;;;;7.43;1.65;;;;;;;24.02;24.67;101893.09;4949608;28;20625;-70
2023/06/11 06:51:50;;;;;;;5.68;1.20;;;;;;;24.68;24.03;101884.09;4961222;28;20157;-70
2023/06/11 06:54:16;;;;;;;5.13;1.20;;;;;;;24.78;23.82;101885.84;4963184;28;20498;-72
2023/06/11 06:56:42;;;;;;;2.80;0.75;;;;;;;24.73;23.72;101890.75;4964301;28;20162;-71
2023/06/11 06:59:08;;;;;;;1.98;1.10;;;;;;;24.93;23.61;101894.41;4962022;28;20586;-73
2023/06/11 07:01:36;;;;;;;3.33;1.10;;;;;;;24.79;24.04;101892.03;4959668;28;20510;-72
2023/06/11 07:04:02;;;;;;;2.78;1.00;;;;;;;24.56;24.32;101897.50;4961872;28;20046;-70
2023/06/11 07:06:29;;;;;;;4.63;1.27;;;;;;;25.37;23.63;101889.69;4948216;28;20038;-71
2023/06/11 07:08:55;;;;;;;2.55;1.23;;;;;;;25.33;23.26;101895.47;4959225;28;20492;-72
2023/06/11 07:11:22;;;;;;;7.72;1.52;;;;;;;25.18;22.89;101898.50;4962640;28;20042;-71
2023/06/11 07:13:47;;;;;;;6.72;1.25;;;;;;;25.03;23.25;101889.97;4960866;28;20326;-70
2023/06/11 07:16:14;;;;;;;6.47;1.40;;;;;;;24.70;23.43;101912.38;4962696;28;20056;-69
2023/06/11 07:18:44;;;;;;;5.25;1.65;;;;;;;24.54;23.93;101903.97;4952769;28;20534;-70
2023/06/11 07:21:10;;;;;;;4.35;1.42;;;;;;;25.17;23.99;101896.78;4960787;28;20071;-71
2023/06/11 07:23:36;;;;;;;2.47;1.38;;;;;;;25.70;22.84;101894.94;4967077;28;20046;-71
2023/06/11 07:26:02;;;;;;;4.93;1.02;;;;;;;25.09;24.03;101898.47;4946264;28;20038;-69
2023/06/11 07:28:28;;;;;;;5.70;1.58;;;;;;;25.43;23.27;101910.56;4962597;28;20038;-70
2023/06/11 07:30:55;;;;;;;2.92;1.92;;;;;;;25.53;23.54;101907.13;4964774;28;20046;-70
2023/06/11 07:33:22;;;;;;;4.35;1.48;;;;;;;25.20;23.79;101906.41;4962312;28;20872;-71
2023/06/11 07:35:49;;;;;;;9.77;1.73;;;;;;;23.36;25.96;101896.50;4961870;28;20034;-69
2023/06/11 07:38:16;;;;;;;2.95;1.95;;;;;;;22.46;27.18;101906.06;4962453;28;20572;-70
2023/06/11 07:40:42;;;;;;;2.63;1.58;;;;;;;23.33;26.32;101910.09;4962777;28;20047;-71
2023/06/11 07:43:08;;;;;;;4.53;1.83;;;;;;;25.62;23.50;101907.16;4971213;28;20037;-71
2023/06/11 07:45:35;;;;;;;3.50;1.65;;;;;;;26.23;22.69;101911.53;4955596;28;20189;-70
2023/06/11 07:48:04;;;;;;;5.40;1.85;;;;;;;24.85;24.37;101918.25;4975538;28;20034;-71
2023/06/11 07:50:30;;;;;;;4.82;2.13;;;;;;;22.99;26.61;101912.69;4958654;28;20050;-71
2023/06/11 07:52:56;;;;;;;4.68;2.53;;;;;;;22.75;27.11;101906.56;4962277;28;20058;-70
2023/06/11 07:55:23;;;;;;;3.50;1.80;;;;;;;23.16;27.11;101914.06;4968535;28;20065;-71
2023/06/11 07:57:49;;;;;;;3.65;2.10;;;;;;;22.14;27.77;101912.81;4955371;28;20599;-70
2023/06/11 08:00:16;;;;;;;5.60;2.08;;;;;;;21.42;29.17;101914.41;4961751;28;20096;-70
2023/06/11 08:02:44;;;;;;;3.17;1.45;;;;;;;21.57;29.14;101908.03;4959445;28;20427;-71
2023/06/11 08:05:11;;;;;;;3.88;1.80;;;;;;;23.14;27.23;101923.13;4958547;28;20136;-70
2023/06/11 08:07:38;;;;;;;6.35;2.03;;;;;;;24.14;25.86;101908.09;4961073;28;20034;-70
2023/06/11 08:10:05;;;;;;;2.60;1.65;;;;;;;25.20;24.45;101906.41;4957432;28;20175;-69
2023/06/11 08:12:31;;;;;;;3.45;2.17;;;;;;;26.14;23.25;101901.66;4963352;28;20038;-70
2023/06/11 08:14:56;;;;;;;6.45;1.75;;;;;;;26.43;23.14;101895.47;4952149;28;20336;-70
2023/06/11 08:17:22;;;;;;;6.00;2.70;;;;;;;25.73;23.86;101908.88;4958796;28;20042;-70
2023/06/11 08:19:48;;;;;;;8.45;2.08;;;;;;;26.07;23.31;101895.19;4957499;28;20042;-71
2023/06/11 08:22:13;;;;;;;3.35;2.78;;;;;;;26.34;22.93;101891.81;4961689;28;20141;-70
2023/06/11 08:24:38;;;;;;;4.47;3.08;;;;;;;26.70;22.37;101892.91;4960181;28;20042;-71
2023/06/11 08:27:04;;;;;;;9.90;2.38;;;;;;;26.88;22.67;101890.34;4962520;28;20053;-70
2023/06/11 08:29:30;;;;;;;2.75;1.63;;;;;;;25.28;24.54;101893.19;4960181;28;20046;-69
2023/06/11 08:31:56;;;;;;;5.60;2.13;;;;;;;25.36;24.30;101901.41;4961005;28;20452;-70
2023/06/11 08:34:22;;;;;;;4.10;2.28;;;;;;;25.96;23.92;101901.47;4959974;28;20436;-70
2023/06/11 08:36:47;;;;;;;5.03;2.47;;;;;;;26.63;22.71;101890.97;4958625;28;20030;-70
2023/06/11 08:39:13;;;;;;;7.13;1.98;;;;;;;26.99;23.04;101885.81;4961066;28;20050;-71
2023/06/11 08:41:38;;;;;;;4.82;2.17;;;;;;;27.52;22.08;101890.56;4957956;28;20109;-71
2023/06/11 08:44:26;;;;;;;5.90;1.95;;;;;;;28.32;21.22;101885.38;4951627;28;20411;-70
2023/06/11 08:47:27;;;;;;;4.68;2.35;;;;;;;29.05;20.30;101887.78;4959211;28;20030;-70
2023/06/11 08:50:02;;;;;;;4.80;2.35;;;;;;;28.30;22.04;101890.06;4925638;28;20615;-71
2023/06/11 08:53:10;;;;;;;;;;;;;;;;;;;;;
2023/06/11 08:56:09;;;;;;;5.78;2.92;;;;;;;28.85;20.45;101889.84;4941912;28;21472;-69
2023/06/11 08:59:16;;;;;;;;;;;;;;;;;;;;;
2023/06/11 09:01:58;;;;;;;4.68;3.08;;;;;;;28.27;21.69;101888.53;4962093;28;20038;-71
2023/06/11 09:04:43;;;;;;;3.90;2.42;;;;;;;28.34;22.14;101891.47;4931617;28;20054;-71
2023/06/11 09:07:51;;;;;;;2.58;2.38;;;;;;;29.42;21.04;101889.34;4966863;28;20038;-71
2023/06/11 09:11:04;;;;;;;;;;;;;;;;;;;;;
2023/06/11 09:13:50;;;;;;;;;;;;;;;;;;;;;
2023/06/11 09:16:57;;;;;;;3.67;3.03;;;;;;;28.64;21.46;101884.84;4969785;28;20054;-72
2023/06/11 09:20:04;;;;;;;;;;;;;;;;;;;;;
2023/06/11 09:22:52;;;;;;;7.15;3.70;;;;;;;29.35;20.81;101878.38;4957733;28;20225;-71
2023/06/11 09:25:30;;;;;;;;;;;;;;;;;;;;;
2023/06/11 09:28:53;;;;;;;;;;;;;;;;;;;;;
2023/06/11 09:31:33;;;;;;;7.03;3.90;;;;;;;28.59;21.86;101889.84;4953555;28;20042;-71
2023/06/11 09:34:19;;;;;;;;;;;;;;;;;;;;;
2023/06/11 09:37:32;;;;;;;3.92;3.15;;;;;;;27.71;23.41;101893.16;4958552;28;20040;-70
2023/06/11 09:40:40;;;;;;;;;;;;;;;;;;;;;
2023/06/11 09:43:27;;;;;;;4.20;3.10;;;;;;;27.11;23.89;101882.81;4951382;28;20551;-71
2023/06/11 09:46:08;;;;;;;3.75;3.28;;;;;;;27.28;23.29;101891.94;4958257;28;20040;-70
2023/06/11 09:49:03;;;;;;;8.10;3.25;;;;;;;27.23;23.53;101888.88;4941474;28;20046;-71
2023/06/11 09:51:53;;;;;;;3.92;3.15;;;;;;;27.34;23.45;101886.97;4941538;28;21949;-70
2023/06/11 09:57:55;;;;;;;7.43;4.38;;;;;;;26.76;23.62;101886.16;4958739;28;20070;-71
2023/06/11 10:00:58;;;;;;;5.38;3.42;;;;;;;26.65;24.45;101889.00;4919429;28;20038;-70
2023/06/11 10:03:45;;;;;;;;;;;;;;;;;;;;;
2023/06/11 10:06:49;;;;;;;5.80;3.70;;;;;;;26.79;23.50;101890.38;4924761;28;20047;-71
2023/06/11 10:09:44;;;;;;;8.50;3.63;;;;;;;26.68;23.61;101889.53;4924990;28;20093;-71
2023/06/11 10:12:43;;;;;;;;;;;;;;;;;;;;;
2023/06/11 10:15:27;;;;;;;4.47;3.63;;;;;;;26.77;23.06;101879.78;4953125;28;20098;-70
2023/06/11 10:18:14;;;;;;;4.07;3.50;;;;;;;26.94;23.68;101882.69;4961025;28;20058;-71
2023/06/11 10:21:17;;;;;;;5.47;3.63;;;;;;;26.97;23.53;101888.63;4923473;28;20367;-70
2023/06/11 10:24:01;;;;;;;7.30;3.75;;;;;;;26.83;23.94;101881.06;4944929;28;20060;-71
2023/06/11 10:27:25;;;;;;;7.70;3.47;;;;;;;27.20;23.54;101883.78;4967777;28;21045;-70
2023/06/11 10:33:41;;;;;;;5.57;3.28;;;;;;;28.27;23.22;101883.16;4902327;28;20051;-69
2023/06/11 10:36:58;;;;;;;5.47;4.05;;;;;;;28.03;22.21;101885.59;4955201;28;20517;-70
2023/06/11 10:40:34;;;;;;;5.95;3.28;;;;;;;28.25;22.14;101884.31;4931839;28;20057;-70
2023/06/11 10:44:02;;;;;;;4.18;3.17;;;;;;;27.48;22.75;101879.28;4952739;28;20077;-70
2023/06/11 10:47:20;;;;;;;5.72;3.20;;;;;;;27.27;22.95;101884.03;4961292;28;20191;-71
2023/06/11 10:50:31;;;;;;;7.15;3.00;;;;;;;27.39;23.00;101876.66;4941005;28;20328;-70
2023/06/11 10:53:23;;;;;;;10.73;4.07;;;;;;;27.25;23.58;101883.31;4959044;28;20058;-70
2023/06/11 10:56:28;;;;;;;5.43;3.30;;;;;;;27.33;23.10;101882.59;4945263;28;20042;-71
2023/06/11 10:59:17;;;;;;;7.75;3.22;;;;;;;27.81;23.13;101887.75;4943551;28;20751;-70
2023/06/11 11:01:55;;;;;;;6.68;3.45;;;;;;;27.87;21.88;101881.75;4961216;28;20026;-71
2023/06/11 11:04:41;;;;;;;3.03;2.67;;;;;;;28.07;22.61;101882.44;4936564;28;20053;-71
2023/06/11 11:11:13;;;;;;;7.40;3.53;;;;;;;28.66;21.67;101882.00;4949711;28;20054;-70
2023/06/11 11:14:16;;;;;;;;;;;;;;;;;;;;;
2023/06/11 11:17:05;;;;;;;6.07;4.65;;;;;;;28.54;21.68;101873.31;4970858;28;20065;-70
2023/06/11 11:20:26;;;;;;;5.80;3.78;;;;;;;28.49;22.20;101870.25;4941076;28;20801;-70
2023/06/11 11:23:29;;;;;;;;;;;;;;;;;;;;;
2023/06/11 11:26:37;;;;;;;5.82;3.05;;;;;;;28.96;21.36;101867.22;4959301;28;20438;-70
2023/06/11 11:29:13;;;;;;;4.38;2.70;;;;;;;28.81;21.21;101855.34;4939356;28;20336;-70
2023/06/11 11:32:22;;;;;;;;;;;;;;;;;;;;;
2023/06/11 11:35:27;;;;;;;6.03;3.28;;;;;;;28.41;21.94;101862.09;4931195;28;20118;-70
2023/06/11 11:38:28;;;;;;;8.85;2.83;;;;;;;28.09;22.17;101858.13;4967671;28;20221;-70
2023/06/11 11:41:31;;;;;;;3.50;2.92;;;;;;;28.37;21.67;101858.91;4959528;28;20427;-69
2023/06/11 11:44:12;;;;;;;5.38;3.22;;;;;;;28.72;21.54;101866.09;4932965;28;20211;-70
2023/06/11 11:47:18;;;;;;;6.72;2.88;;;;;;;28.83;21.15;101845.28;4949139;28;20500;-70
2023/06/11 11:50:19;;;;;;;5.40;4.10;;;;;;;28.86;20.57;101855.72;4947497;28;20178;-70
2023/06/11 11:53:21;;;;;;;;;;;;;;;;;;;;;
2023/06/11 11:56:13;;;;;;;5.03;2.65;;;;;;;28.60;21.34;101856.53;4959835;28;20254;-71
2023/06/11 11:58:49;;;;;;;7.95;3.25;;;;;;;28.53;20.76;101850.94;4934898;28;20573;-71
2023/06/11 12:02:16;;;;;;;;;;;;;;;;;;;;;
2023/06/11 12:04:57;;;;;;;3.20;2.38;;;;;;;29.50;20.05;101846.28;4950312;28;20860;-71
2023/06/11 12:07:23;;;;;;;4.53;2.80;;;;;;;28.95;20.79;101844.84;4957832;28;20434;-70
2023/06/11 12:09:49;;;;;;;7.15;3.58;;;;;;;28.54;20.74;101849.09;4959915;28;20035;-70
2023/06/11 12:12:14;;;;;;;4.47;2.90;;;;;;;28.49;20.21;101843.34;4973878;28;20860;-70
2023/06/11 12:14:40;;;;;;;4.15;2.55;;;;;;;28.56;20.18;101847.09;4958147;28;20088;-73
2023/06/11 12:17:10;;;;;;;11.02;5.05;;;;;;;28.46;20.54;101849.06;4962665;28;20696;-70
2023/06/11 12:19:36;;;;;;;4.13;2.70;;;;;;;28.57;20.68;101843.44;4955608;28;20049;-71
2023/06/11 12:22:05;;;;;;;4.40;2.83;;;;;;;28.96;20.05;101846.53;4952229;28;20034;-70
2023/06/11 12:24:32;;;;;;;4.65;3.13;;;;;;;28.84;19.79;101847.00;4957487;28;20288;-71
2023/06/11 12:26:59;;;;;;;5.18;3.28;;;;;;;28.57;19.85;101846.13;4960710;28;20045;-70
2023/06/11 12:29:24;;;;;;;7.00;3.10;;;;;;;29.13;19.91;101841.28;4951603;28;20060;-69